Map

Track Data

SID SEASON NUMBER BASIN SUBBASIN NAME ISO_TIME NATURE LAT LON WMO_WIND WMO_PRES WMO_AGENCY TRACK_TYPE DIST2LAND LANDFALL IFLAG USA_AGENCY USA_ATCF_ID USA_LAT USA_LON USA_RECORD USA_STATUS USA_WIND USA_PRES USA_SSHS USA_R34_NE USA_R34_SE USA_R34_SW USA_R34_NW USA_R50_NE USA_R50_SE USA_R50_SW USA_R50_NW USA_R64_NE USA_R64_SE USA_R64_SW USA_R64_NW USA_POCI USA_ROCI USA_RMW USA_EYE TOKYO_LAT TOKYO_LON TOKYO_GRADE TOKYO_WIND TOKYO_PRES TOKYO_R50_DIR TOKYO_R50_LONG TOKYO_R50_SHORT TOKYO_R30_DIR TOKYO_R30_LONG TOKYO_R30_SHORT TOKYO_LAND CMA_LAT CMA_LON CMA_CAT CMA_WIND CMA_PRES HKO_LAT HKO_LON HKO_CAT HKO_WIND HKO_PRES NEWDELHI_LAT NEWDELHI_LON NEWDELHI_GRADE NEWDELHI_WIND NEWDELHI_PRES NEWDELHI_CI NEWDELHI_DP NEWDELHI_POCI REUNION_LAT REUNION_LON REUNION_TYPE REUNION_WIND REUNION_PRES REUNION_TNUM REUNION_CI REUNION_RMW REUNION_R34_NE REUNION_R34_SE REUNION_R34_SW REUNION_R34_NW REUNION_R50_NE REUNION_R50_SE REUNION_R50_SW REUNION_R50_NW REUNION_R64_NE REUNION_R64_SE REUNION_R64_SW REUNION_R64_NW BOM_LAT BOM_LON BOM_TYPE BOM_WIND BOM_PRES BOM_TNUM BOM_CI BOM_RMW BOM_R34_NE BOM_R34_SE BOM_R34_SW BOM_R34_NW BOM_R50_NE BOM_R50_SE BOM_R50_SW BOM_R50_NW BOM_R64_NE BOM_R64_SE BOM_R64_SW BOM_R64_NW BOM_ROCI BOM_POCI BOM_EYE BOM_POS_METHOD BOM_PRES_METHOD NADI_LAT NADI_LON NADI_CAT NADI_WIND NADI_PRES WELLINGTON_LAT WELLINGTON_LON WELLINGTON_WIND WELLINGTON_PRES DS824_LAT DS824_LON DS824_STAGE DS824_WIND DS824_PRES TD9636_LAT TD9636_LON TD9636_STAGE TD9636_WIND TD9636_PRES TD9635_LAT TD9635_LON TD9635_WIND TD9635_PRES TD9635_ROCI NEUMANN_LAT NEUMANN_LON NEUMANN_CLASS NEUMANN_WIND NEUMANN_PRES MLC_LAT MLC_LON MLC_CLASS MLC_WIND MLC_PRES USA_GUST BOM_GUST BOM_GUST_PER REUNION_GUST REUNION_GUST_PER USA_SEAHGT USA_SEARAD_NE USA_SEARAD_SE USA_SEARAD_SW USA_SEARAD_NW STORM_SPEED STORM_DIR
1996225N23108 1996 63 WP MM MARTY 1996-08-11 12:00:00 NR 22.9000 108.400 main 0 0 O_____________ jtwc_wp WP161996 22.9000 108.400 15 -1 9 0
1996225N23108 1996 63 WP MM MARTY 1996-08-11 15:00:00 NR 22.4750 108.410 main 0 0 P_____________ WP161996 22.4750 108.410 15 -1 5 153
1996225N23108 1996 63 WP MM MARTY 1996-08-11 18:00:00 TS 22.4500 108.650 main 0 0 O_O___________ jtwc_wp WP161996 22.1000 108.400 15 -1 23.5000 109.400 0 19 1002 5 149
1996225N23108 1996 63 WP MM MARTY 1996-08-11 21:00:00 TS 22.0849 108.667 main 0 0 P_P___________ WP161996 21.8125 108.357 17 -1 22.6296 109.285 0 19 1002 7 183
1996225N23108 1996 63 WP MM MARTY 1996-08-12 00:00:00 TS 21.7714 108.600 main 0 0 O_O___________ jtwc_wp WP161996 21.6000 108.300 20 -1 22.0000 109.000 0 19 1002 6 210
1996225N23108 1996 63 WP MM MARTY 1996-08-12 03:00:00 TS 21.6003 108.364 main 0 0 P_P___________ WP161996 21.4275 108.258 22 -1 21.7731 108.470 0 19 1001 5 245
1996225N23108 1996 63 WP MM MARTY 1996-08-12 06:00:00 TS 21.5500 108.100 main 0 0 O_O___________ jtwc_wp WP161996 21.3000 108.200 25 -1 21.8000 108.000 0 19 1000 3 265
1996225N23108 1996 63 WP MM MARTY 1996-08-12 09:00:00 TS 21.5723 108.043 main 0 0 P_P___________ WP161996 21.1850 108.115 25 -1 21.9597 107.970 0 19 1000 1 270
1996225N23108 1996 63 WP MM MARTY 1996-08-12 12:00:00 TS 21.5500 108.000 main 0 0 O_O___________ jtwc_wp WP161996 21.1000 108.000 25 -1 22.0000 108.000 0 19 1000 4 222
1996225N23108 1996 63 WP MM MARTY 1996-08-12 15:00:00 TS 21.2901 107.775 main 11 10 P_P___________ WP161996 21.0500 107.850 25 -1 21.5303 107.699 0 19 1000 7 217
1996225N23108 1996 63 WP MM MARTY 1996-08-12 18:00:00 TS 21.0000 107.550 main 20 10 O_O___________ jtwc_wp WP161996 21.0000 107.700 25 -1 21.0000 107.400 0 19 1000 5 214
1996225N23108 1996 63 WP MM MARTY 1996-08-12 21:00:00 TS 20.8737 107.474 main 15 15 P_P___________ WP161996 20.9075 107.593 27 -1 20.8399 107.355 0 24 999 2 207
1996225N23108 1996 63 WP MM MARTY 1996-08-13 00:00:00 TS 20.8000 107.450 main 24 22 O_O___________ jtwc_wp WP161996 20.8000 107.500 30 -1 20.8000 107.400 1 29 998 2 197
1996225N23108 1996 63 WP MM MARTY 1996-08-13 03:00:00 TS 20.6887 107.415 main 30 30 P_P___________ WP161996 20.6925 107.400 32 -1 20.6850 107.430 1 29 996 2 207
1996225N23108 1996 63 WP MM MARTY 1996-08-13 06:00:00 TS 20.6000 107.350 main 39 33 O_O___________ jtwc_wp WP161996 20.6000 107.300 35 0 20.6000 107.400 1 29 995 2 237
1996225N23108 1996 63 WP MM MARTY 1996-08-13 09:00:00 TS 20.5563 107.200 main 33 33 P_P___________ WP161996 20.5500 107.208 37 0 20.5626 107.193 1 29 995 3 266
1996225N23108 1996 63 WP MM MARTY 1996-08-13 12:00:00 TS 20.5778 107.044 main 23 23 O_OO__________ jtwc_wp WP161996 20.5000 107.100 40 0 20.6000 107.000 1 29 995 20.8000 107.000 TD 30 998 2 282
1996225N23108 1996 63 WP MM MARTY 1996-08-13 15:00:00 TS 20.6030 106.973 main 23 15 P_PP__________ WP161996 20.4000 106.957 45 0 20.7575 107.050 1 29 996 20.7000 106.850 TD 30 998 2 278
1996225N23108 1996 63 WP MM MARTY 1996-08-13 18:00:00 TS 20.6000 106.882 main 15 10 O_OO__________ jtwc_wp WP161996 20.3000 106.800 50 0 20.9000 107.100 1 29 997 20.6000 106.700 TD 30 998 3 256
1996225N23108 1996 63 WP MM MARTY 1996-08-13 21:00:00 TS 20.5408 106.713 main 15 0 P_PP__________ WP161996 20.2350 106.658 50 0 20.8876 106.930 1 29 997 20.5000 106.550 TD 30 998 4 248
1996225N23108 1996 63 WP MM MARTY 1996-08-14 00:00:00 TS 20.4667 106.533 main 0 0 O_OO__________ jtwc_wp WP161996 20.2000 106.500 50 0 20.8000 106.700 1 29 998 20.4000 106.400 TD 30 998 4 246
1996225N23108 1996 63 WP MM MARTY 1996-08-14 03:00:00 TS 20.3925 106.364 main 0 0 P_PP__________ WP161996 20.2000 106.308 45 0 20.6850 106.535 1 29 998 20.2925 106.250 TD 30 998 3 247
1996225N23108 1996 63 WP MM MARTY 1996-08-14 06:00:00 TS 20.3333 106.200 main 0 0 O_OO__________ jtwc_wp WP161996 20.2000 106.100 40 0 20.6000 106.400 1 29 999 20.2000 106.100 TD 30 998 3 253
1996225N23108 1996 63 WP MM MARTY 1996-08-14 09:00:00 TS 20.3041 106.050 main 0 0 P_PP__________ WP161996 20.1425 105.900 35 0 20.6350 106.278 1 24 1000 20.1349 105.973 TD 30 998 3 267
1996225N23108 1996 63 WP MM MARTY 1996-08-14 12:00:00 TS 20.3182 105.909 main 0 0 O_OO__________ jtwc_wp WP161996 20.1000 105.700 30 -1 20.7000 106.200 0 19 1002 20.1000 105.800 TD 30 998 3 282
1996225N23108 1996 63 WP MM MARTY 1996-08-14 15:00:00 TS 20.3555 105.786 main 0 0 P_PP__________ WP161996 20.1350 105.500 30 -1 20.7075 106.200 0 19 1002 20.0927 105.530 TD 27 1000 2 294
1996225N23108 1996 63 WP MM MARTY 1996-08-14 18:00:00 TS 20.4111 105.689 main 0 0 O_OO__________ jtwc_wp WP161996 20.2000 105.300 30 -1 20.7000 106.200 0 19 1002 20.1000 105.200 TD 25 1002 2 305
1996225N23108 1996 63 WP MM MARTY 1996-08-14 21:00:00 TS 20.4788 105.600 main 0 0 P_P___________ WP161996 20.2575 105.100 27 -1 20.7000 106.100 0 19 1001 TD 2 292
1996225N23108 1996 63 WP MM MARTY 1996-08-15 00:00:00 TS 20.5000 105.450 main 0 0 O_O___________ jtwc_wp WP161996 20.3000 104.900 25 -1 20.7000 106.000 0 19 1000 2 277
1996225N23108 1996 63 WP MM MARTY 1996-08-15 03:00:00 TS 20.5075 105.361 main 0 0 P_P___________ WP161996 20.3074 104.707 22 -1 20.7075 106.015 0 24 1000 3 264
1996225N23108 1996 63 WP MM MARTY 1996-08-15 06:00:00 TS 20.4714 105.143 main 0 0 O_O___________ jtwc_wp WP161996 20.3000 104.500 20 -1 20.7000 106.000 1 29 1000 6 261
1996225N23108 1996 63 WP MM MARTY 1996-08-15 09:00:00 TS 20.4201 104.782 main 0 0 P_P___________ WP161996 20.3000 104.250 17 -1 20.6601 105.845 1 26 1000 8 262
1996225N23108 1996 63 WP MM MARTY 1996-08-15 12:00:00 TS 20.3600 104.320 main 0 0 O_O___________ jtwc_wp WP161996 20.3000 104.000 15 -1 20.6000 105.600 1 23 1000 9 263
1996225N23108 1996 63 WP MM MARTY 1996-08-15 15:00:00 NR 20.3000 103.785 main 0 0 P_____________ WP161996 20.3000 103.785 15 -1 1 7 265
1996225N23108 1996 63 WP MM MARTY 1996-08-15 18:00:00 NR 20.3000 103.600 main 0 0 O_____________ jtwc_wp WP161996 20.3000 103.600 15 -1 3 270
1996225N23108 1996 63 WP MM MARTY 1996-08-15 21:00:00 NR 20.3000 103.443 main 0 0 P_____________ WP161996 20.3000 103.443 15 -1 3 270
1996225N23108 1996 63 WP MM MARTY 1996-08-16 00:00:00 NR 20.3000 103.300 main 0 0 O_____________ jtwc_wp WP161996 20.3000 103.300 15 -1 3 270
1996225N23108 1996 63 WP MM MARTY 1996-08-16 03:00:00 NR 20.3000 103.150 main 0 0 P_____________ WP161996 20.3000 103.150 15 -1 3 270
1996225N23108 1996 63 WP MM MARTY 1996-08-16 06:00:00 NR 20.3000 103.000 main 0 0 O_____________ jtwc_wp WP161996 20.3000 103.000 15 -1 3 268
1996225N23108 1996 63 WP MM MARTY 1996-08-16 09:00:00 NR 20.2925 102.850 main 0 0 P_____________ WP161996 20.2925 102.850 15 -1 3 270
1996225N23108 1996 63 WP MM MARTY 1996-08-16 12:00:00 NR 20.3000 102.700 main 0 0 O_____________ jtwc_wp WP161996 20.3000 102.700 15 -1 3 282
1996225N23108 1996 63 WP MM MARTY 1996-08-16 15:00:00 NR 20.3500 102.550 main 0 0 P_____________ WP161996 20.3500 102.550 15 -1 3 290
1996225N23108 1996 63 WP MM MARTY 1996-08-16 18:00:00 NR 20.4000 102.400 main 0 0 O_____________ jtwc_wp WP161996 20.4000 102.400 15 -1 3 283
1996225N23108 1996 63 WP MM MARTY 1996-08-16 21:00:00 NR 20.4125 102.250 main 0 0 P_____________ WP161996 20.4125 102.250 15 -1 3 270
1996225N23108 1996 63 WP MM MARTY 1996-08-17 00:00:00 NR 20.4000 102.100 main 0 O_____________ jtwc_wp WP161996 20.4000 102.100 15 -1 3 265

Digital Typhoon Data and Search

About IBTrACS Database

This database is a web-friendly format of International Best Track Archive for Climate Stewardship (IBTrACS), a global best track data archive curated by NOAA dating back to 1842.

Updated: 2021-10-08